地図

経路データ

SID SEASON NUMBER BASIN SUBBASIN NAME ISO_TIME NATURE LAT LON WMO_WIND WMO_PRES WMO_AGENCY TRACK_TYPE DIST2LAND LANDFALL IFLAG USA_AGENCY USA_ATCF_ID USA_LAT USA_LON USA_RECORD USA_STATUS USA_WIND USA_PRES USA_SSHS USA_R34_NE USA_R34_SE USA_R34_SW USA_R34_NW USA_R50_NE USA_R50_SE USA_R50_SW USA_R50_NW USA_R64_NE USA_R64_SE USA_R64_SW USA_R64_NW USA_POCI USA_ROCI USA_RMW USA_EYE TOKYO_LAT TOKYO_LON TOKYO_GRADE TOKYO_WIND TOKYO_PRES TOKYO_R50_DIR TOKYO_R50_LONG TOKYO_R50_SHORT TOKYO_R30_DIR TOKYO_R30_LONG TOKYO_R30_SHORT TOKYO_LAND CMA_LAT CMA_LON CMA_CAT CMA_WIND CMA_PRES HKO_LAT HKO_LON HKO_CAT HKO_WIND HKO_PRES NEWDELHI_LAT NEWDELHI_LON NEWDELHI_GRADE NEWDELHI_WIND NEWDELHI_PRES NEWDELHI_CI NEWDELHI_DP NEWDELHI_POCI REUNION_LAT REUNION_LON REUNION_TYPE REUNION_WIND REUNION_PRES REUNION_TNUM REUNION_CI REUNION_RMW REUNION_R34_NE REUNION_R34_SE REUNION_R34_SW REUNION_R34_NW REUNION_R50_NE REUNION_R50_SE REUNION_R50_SW REUNION_R50_NW REUNION_R64_NE REUNION_R64_SE REUNION_R64_SW REUNION_R64_NW BOM_LAT BOM_LON BOM_TYPE BOM_WIND BOM_PRES BOM_TNUM BOM_CI BOM_RMW BOM_R34_NE BOM_R34_SE BOM_R34_SW BOM_R34_NW BOM_R50_NE BOM_R50_SE BOM_R50_SW BOM_R50_NW BOM_R64_NE BOM_R64_SE BOM_R64_SW BOM_R64_NW BOM_ROCI BOM_POCI BOM_EYE BOM_POS_METHOD BOM_PRES_METHOD NADI_LAT NADI_LON NADI_CAT NADI_WIND NADI_PRES WELLINGTON_LAT WELLINGTON_LON WELLINGTON_WIND WELLINGTON_PRES DS824_LAT DS824_LON DS824_STAGE DS824_WIND DS824_PRES TD9636_LAT TD9636_LON TD9636_STAGE TD9636_WIND TD9636_PRES TD9635_LAT TD9635_LON TD9635_WIND TD9635_PRES TD9635_ROCI NEUMANN_LAT NEUMANN_LON NEUMANN_CLASS NEUMANN_WIND NEUMANN_PRES MLC_LAT MLC_LON MLC_CLASS MLC_WIND MLC_PRES USA_GUST BOM_GUST BOM_GUST_PER REUNION_GUST REUNION_GUST_PER USA_SEAHGT USA_SEARAD_NE USA_SEARAD_SE USA_SEARAD_SW USA_SEARAD_NW STORM_SPEED STORM_DIR
1976266N13220 1976 116 EP CP KATE 1976-09-21 18:00:00 NR 12.9000 -140.500 30 cphc main 1695 1651 O_________O___ cphc 12.9000 -140.500 30 -1 12.9000 -140.500 1 30 8 313
1976266N13220 1976 116 EP CP KATE 1976-09-21 21:00:00 NR 13.1736 -140.796 main 1651 1611 P_________P___ 13.1777 -140.842 30 -1 13.1646 -140.863 1 30 8 311
1976266N13220 1976 116 EP CP KATE 1976-09-22 00:00:00 TS 13.4000 -141.100 30 hurdat_epa main 1611 1587 O________OO___ hurdat_epa CP011976 13.4000 -141.100 TD 30 -1 13.4000 -141.100 TC 30 13.4000 -141.200 1 30 6 306
1976266N13220 1976 116 EP CP KATE 1976-09-22 03:00:00 TS 13.5310 -141.296 main 1587 1572 P________PP___ CP011976 13.5299 -141.223 TD 30 -1 13.5125 -141.185 TC 30 13.5841 -141.490 1 30 4 304
1976266N13220 1976 116 EP CP KATE 1976-09-22 06:00:00 TS 13.6243 -141.445 30 hurdat_epa main 1572 1548 O________OP___ hurdat_epa CP011976 13.6000 -141.300 TD 30 -1 13.6000 -141.300 TC 30 13.7215 -141.723 1 30 3 301
1976266N13220 1976 116 EP CP KATE 1976-09-22 09:00:00 TS 13.6968 -141.576 main 1548 1533 P________PP___ CP011976 13.6500 -141.458 TD 30 -1 13.6500 -141.458 TC 30 13.8231 -141.895 1 30 3 300
1976266N13220 1976 116 EP CP KATE 1976-09-22 12:00:00 TS 13.7667 -141.700 30 hurdat_epa main 1533 1519 O________OO___ hurdat_epa CP011976 13.7000 -141.600 TD 30 -1 13.7000 -141.600 TC 30 13.9000 -142.000 1 30 2 311
1976266N13220 1976 116 EP CP KATE 1976-09-22 15:00:00 TS 13.8567 -141.765 main 1519 1519 P________PP___ CP011976 13.8000 -141.658 TD 30 -1 13.8000 -141.658 TC 30 13.9755 -142.040 1 31 2 330
1976266N13220 1976 116 EP CP KATE 1976-09-22 18:00:00 TS 13.9383 -141.803 30 hurdat_epa main 1519 1504 O________OP___ hurdat_epa CP011976 13.9000 -141.700 TD 30 -1 13.9000 -141.700 TC 30 14.0299 -142.018 1 32 2 324
1976266N13220 1976 116 EP CP KATE 1976-09-22 21:00:00 TS 13.9928 -141.866 main 1504 1504 P________PP___ CP011976 13.9575 -141.815 TD 32 -1 13.9575 -141.815 TC 32 14.0693 -141.962 1 33 1 314
1976266N13220 1976 116 EP CP KATE 1976-09-23 00:00:00 TS 14.0333 -141.900 35 hurdat_epa main 1504 1499 O________OO___ hurdat_epa CP011976 14.0000 -141.900 TS 35 0 14.0000 -141.900 TC 35 14.1000 -141.900 2 35 1 7
1976266N13220 1976 116 EP CP KATE 1976-09-23 03:00:00 TS 14.0714 -141.862 main 1499 1499 P________PP___ CP011976 14.0500 -141.865 TS 35 0 14.0500 -141.865 TC 35 14.1281 -141.867 2 36 1 51
1976266N13220 1976 116 EP CP KATE 1976-09-23 06:00:00 TS 14.1083 -141.806 35 hurdat_epa main 1509 1509 O________OP___ hurdat_epa CP011976 14.1000 -141.800 TS 35 0 14.1000 -141.800 TC 35 14.1500 -141.835 2 37 1 39
1976266N13220 1976 116 EP CP KATE 1976-09-23 09:00:00 TS 14.1524 -141.791 main 1504 1504 P________PP___ CP011976 14.1500 -141.785 TS 37 0 14.1500 -141.785 TC 37 14.1719 -141.811 2 38 1 0
1976266N13220 1976 116 EP CP KATE 1976-09-23 12:00:00 TS 14.2000 -141.800 40 hurdat_epa main 1504 1504 O________OO___ hurdat_epa CP011976 14.2000 -141.800 TS 40 0 14.2000 -141.800 TC 40 14.2000 -141.800 2 40 1 340
1976266N13220 1976 116 EP CP KATE 1976-09-23 15:00:00 TS 14.2508 -141.828 main 1500 1490 P________PP___ CP011976 14.2500 -141.842 TS 42 0 14.2500 -141.842 TC 42 14.2550 -141.802 2 41 1 325
1976266N13220 1976 116 EP CP KATE 1976-09-23 18:00:00 TS 14.3025 -141.870 45 hurdat_epa main 1490 1485 O________OP___ hurdat_epa CP011976 14.3000 -141.900 TS 45 0 14.3000 -141.900 TC 45 14.3150 -141.820 2 42 1 322
1976266N13220 1976 116 EP CP KATE 1976-09-23 21:00:00 TS 14.3592 -141.916 main 1485 1475 P________PP___ CP011976 14.3575 -141.950 TS 45 0 14.3575 -141.950 TC 45 14.3675 -141.852 2 43 1 315
1976266N13220 1976 116 EP CP KATE 1976-09-24 00:00:00 TS 14.4000 -141.967 45 hurdat_epa main 1475 1475 O________OO___ hurdat_epa CP011976 14.4000 -142.000 TS 45 0 14.4000 -142.000 TC 45 14.4000 -141.900 2 45 1 301
1976266N13220 1976 116 EP CP KATE 1976-09-24 03:00:00 TS 14.4126 -142.012 main 1475 1466 P________PP___ CP011976 14.4150 -142.043 TS 52 0 14.4150 -142.043 TC 52 14.4006 -141.957 2 48 1 268
1976266N13220 1976 116 EP CP KATE 1976-09-24 06:00:00 TS 14.3967 -142.071 60 hurdat_epa main 1466 1456 O________OP___ hurdat_epa CP011976 14.4000 -142.100 TS 60 0 14.4000 -142.100 TC 60 14.3800 -142.027 2 52 2 251
1976266N13220 1976 116 EP CP KATE 1976-09-24 09:00:00 TS 14.3566 -142.173 main 1456 1451 P________PP___ CP011976 14.3575 -142.208 TS 60 0 14.3575 -142.208 TC 60 14.3444 -142.110 2 56 2 243
1976266N13220 1976 116 EP CP KATE 1976-09-24 12:00:00 TS 14.3000 -142.267 60 hurdat_epa main 1451 1451 O________OO___ hurdat_epa CP011976 14.3000 -142.300 TS 60 0 14.3000 -142.300 TC 60 14.3000 -142.200 2 60 2 226
1976266N13220 1976 116 EP CP KATE 1976-09-24 15:00:00 TS 14.2396 -142.293 main 1456 1456 P________PP___ CP011976 14.2500 -142.307 TS 62 0 14.2500 -142.307 TC 62 14.2450 -142.285 2 62 1 198
1976266N13220 1976 116 EP CP KATE 1976-09-24 18:00:00 TS 14.1808 -142.313 65 hurdat_epa main 1456 1451 O________OP___ hurdat_epa CP011976 14.2000 -142.300 HU 65 1 14.2000 -142.300 TC 65 14.1850 -142.378 2 65 1 210
1976266N13220 1976 116 EP CP KATE 1976-09-24 21:00:00 TS 14.1312 -142.366 main 1451 1441 P________PP___ CP011976 14.1425 -142.320 HU 67 1 14.1425 -142.320 TC 67 14.1325 -142.482 2 67 2 241
1976266N13220 1976 116 EP CP KATE 1976-09-25 00:00:00 TS 14.1000 -142.467 70 hurdat_epa main 1441 1431 O________OO___ hurdat_epa CP011976 14.1000 -142.400 HU 70 1 14.1000 -142.400 TC 70 14.1000 -142.600 4 70 3 262
1976266N13220 1976 116 EP CP KATE 1976-09-25 03:00:00 TS 14.0943 -142.626 main 1431 1412 P________PP___ CP011976 14.0925 -142.570 HU 70 1 14.0925 -142.570 TC 70 14.1034 -142.727 4 70 4 271
1976266N13220 1976 116 EP CP KATE 1976-09-25 06:00:00 TS 14.1046 -142.828 70 hurdat_epa main 1412 1393 O________OP___ hurdat_epa CP011976 14.1000 -142.800 HU 70 1 14.1000 -142.800 TC 70 14.1274 -142.870 4 70 4 273
1976266N13220 1976 116 EP CP KATE 1976-09-25 09:00:00 TS 14.1138 -143.055 main 1383 1364 P________PP___ CP011976 14.0926 -143.065 HU 70 1 14.0926 -143.065 TC 70 14.1628 -143.027 4 70 4 274
1976266N13220 1976 116 EP CP KATE 1976-09-25 12:00:00 TS 14.1333 -143.267 70 hurdat_epa main 1364 1350 O________OO___ hurdat_epa CP011976 14.1000 -143.300 HU 70 1 14.1000 -143.300 TC 70 14.2000 -143.200 4 70 3 278
1976266N13220 1976 116 EP CP KATE 1976-09-25 15:00:00 TS 14.1610 -143.398 main 1350 1340 P________PP___ CP011976 14.1424 -143.400 HU 70 1 14.1424 -143.400 TC 70 14.1966 -143.394 4 70 3 284
1976266N13220 1976 116 EP CP KATE 1976-09-25 18:00:00 TS 14.1996 -143.533 70 hurdat_epa main 1340 1311 O________OP___ hurdat_epa CP011976 14.2000 -143.500 HU 70 1 14.2000 -143.500 TC 70 14.1976 -143.600 4 70 4 280
1976266N13220 1976 116 EP CP KATE 1976-09-25 21:00:00 TS 14.2246 -143.764 main 1311 1287 P________PP___ CP011976 14.2276 -143.743 HU 70 1 14.2276 -143.743 TC 70 14.2247 -143.806 4 70 5 283
1976266N13220 1976 116 EP CP KATE 1976-09-26 00:00:00 TS 14.3000 -144.000 70 hurdat_epa main 1287 1258 O________OO___ hurdat_epa CP011976 14.3000 -144.000 HU 70 1 14.3000 -144.000 TC 70 14.3000 -144.000 4 70 5 303
1976266N13220 1976 116 EP CP KATE 1976-09-26 03:00:00 TS 14.4792 -144.170 main 1258 1238 P________PP___ CP011976 14.4775 -144.172 HU 70 1 14.4775 -144.172 TC 70 14.4456 -144.172 4 70 5 324
1976266N13220 1976 116 EP CP KATE 1976-09-26 06:00:00 TS 14.7067 -144.305 70 hurdat_epa main 1238 1218 O________OP___ hurdat_epa CP011976 14.7000 -144.300 HU 70 1 14.7000 -144.300 TC 70 14.6400 -144.330 4 70 5 330
1976266N13220 1976 116 EP CP KATE 1976-09-26 09:00:00 TS 14.9203 -144.430 main 1218 1199 P________PP___ CP011976 14.9000 -144.415 HU 72 1 14.9000 -144.415 TC 72 14.8644 -144.472 4 70 5 333
1976266N13220 1976 116 EP CP KATE 1976-09-26 12:00:00 TS 15.1333 -144.533 75 hurdat_epa main 1199 1179 O________OO___ hurdat_epa CP011976 15.1000 -144.500 HU 75 1 15.1000 -144.500 TC 75 15.1000 -144.600 4 70 4 338
1976266N13220 1976 116 EP CP KATE 1976-09-26 15:00:00 TS 15.3331 -144.603 main 1179 1160 P________PP___ CP011976 15.2925 -144.535 HU 75 1 15.2925 -144.535 TC 75 15.3137 -144.715 4 73 4 340
1976266N13220 1976 116 EP CP KATE 1976-09-26 18:00:00 TS 15.5392 -144.686 75 hurdat_epa main 1160 1141 O________OP___ hurdat_epa CP011976 15.5000 -144.600 HU 75 1 15.5000 -144.600 TC 75 15.5349 -144.815 4 77 5 332
1976266N13220 1976 116 EP CP KATE 1976-09-26 21:00:00 TS 15.7577 -144.836 main 1137 1109 P________PP___ CP011976 15.7350 -144.785 HU 77 1 15.7350 -144.785 TC 77 15.7637 -144.908 4 81 6 327
1976266N13220 1976 116 EP CP KATE 1976-09-27 00:00:00 TS 16.0000 -145.000 80 hurdat_epa main 1109 1086 O________OO___ hurdat_epa CP011976 16.0000 -145.000 HU 80 1 16.0000 -145.000 TC 80 16.0000 -145.000 4 85 6 332
1976266N13220 1976 116 EP CP KATE 1976-09-27 03:00:00 TS 16.2732 -145.122 main 1086 1069 P________PP___ CP011976 16.2925 -145.158 HU 80 1 16.2925 -145.158 TC 80 16.2345 -145.068 4 83 6 338
1976266N13220 1976 116 EP CP KATE 1976-09-27 06:00:00 TS 16.5629 -145.240 80 hurdat_epa main 1065 1038 O________OP___ hurdat_epa CP011976 16.6000 -145.300 HU 80 1 16.6000 -145.300 TC 80 16.4772 -145.141 4 82 6 338
1976266N13220 1976 116 EP CP KATE 1976-09-27 09:00:00 TS 16.8506 -145.366 main 1034 1017 P________PP___ CP011976 16.9074 -145.435 HU 77 1 16.9074 -145.435 TC 77 16.7313 -145.243 4 81 6 334
1976266N13220 1976 116 EP CP KATE 1976-09-27 12:00:00 TS 17.1333 -145.533 75 hurdat_epa main 1017 977 O________OO___ hurdat_epa CP011976 17.2000 -145.600 HU 75 1 17.2000 -145.600 TC 75 17.0000 -145.400 4 80 7 325
1976266N13220 1976 116 EP CP KATE 1976-09-27 15:00:00 TS 17.4034 -145.773 main 977 948 P________PP___ CP011976 17.4575 -145.835 HU 75 1 17.4575 -145.835 TC 75 17.2977 -145.622 4 78 7 317
1976266N13220 1976 116 EP CP KATE 1976-09-27 18:00:00 TS 17.6679 -146.050 75 hurdat_epa main 938 912 O________OP___ hurdat_epa CP011976 17.7000 -146.100 HU 75 1 17.7000 -146.100 TC 75 17.6073 -145.902 4 77 7 316
1976266N13220 1976 116 EP CP KATE 1976-09-27 21:00:00 TS 17.9367 -146.306 main 912 875 P________PP___ CP011976 17.9499 -146.328 HU 75 1 17.9499 -146.328 TC 75 17.9133 -146.232 4 76 7 315
1976266N13220 1976 116 EP CP KATE 1976-09-28 00:00:00 TS 18.2000 -146.600 75 hurdat_epa main 875 839 O________OO___ hurdat_epa CP011976 18.2000 -146.600 HU 75 1 18.2000 -146.600 TC 75 18.2000 -146.600 4 75 8 310
1976266N13220 1976 116 EP CP KATE 1976-09-28 03:00:00 TS 18.4556 -146.966 main 827 782 P________PP___ CP011976 18.4575 -146.970 HU 75 1 18.4575 -146.970 TC 75 18.4385 -146.990 4 75 9 303
1976266N13220 1976 116 EP CP KATE 1976-09-28 06:00:00 TS 18.6929 -147.386 75 hurdat_epa main 782 738 O________OP___ hurdat_epa CP011976 18.7000 -147.400 HU 75 1 18.7000 -147.400 TC 75 18.6576 -147.413 4 75 9 299
1976266N13220 1976 116 EP CP KATE 1976-09-28 09:00:00 TS 18.9004 -147.822 main 738 683 P________PP___ CP011976 18.9074 -147.835 HU 75 1 18.9074 -147.835 TC 75 18.8728 -147.855 4 75 9 296
1976266N13220 1976 116 EP CP KATE 1976-09-28 12:00:00 TS 19.1000 -148.283 75 hurdat_epa main 683 640 O________OO___ hurdat_epa CP011976 19.1000 -148.300 HU 75 1 19.1000 -148.300 TC 75 19.1000 -148.300 4 75 10 294
1976266N13220 1976 116 EP CP KATE 1976-09-28 15:00:00 TS 19.2926 -148.774 main 629 586 P________PP___ CP011976 19.2701 -148.815 HU 72 1 19.2701 -148.815 TC 72 19.3402 -148.734 4 72 10 295
1976266N13220 1976 116 EP CP KATE 1976-09-28 18:00:00 TS 19.5329 -149.244 70 hurdat_epa main 586 545 O________OP___ hurdat_epa CP011976 19.5000 -149.300 HU 70 1 19.5000 -149.300 TC 70 19.5973 -149.166 4 70 10 306
1976266N13220 1976 116 EP CP KATE 1976-09-28 21:00:00 TS 19.8929 -149.648 main 546 508 P________PP___ CP011976 19.8999 -149.687 HU 67 1 19.8999 -149.687 TC 67 19.8808 -149.590 4 67 10 316
1976266N13220 1976 116 EP CP KATE 1976-09-29 00:00:00 TS 20.2667 -150.000 65 hurdat_epa main 509 483 O________OO___ hurdat_epa CP011976 20.3000 -150.000 HU 65 1 20.3000 -150.000 TC 65 20.2000 -150.000 4 65 9 316
1976266N13220 1976 116 EP CP KATE 1976-09-29 03:00:00 TS 20.5338 -150.314 main 483 461 P________PP___ CP011976 20.5073 -150.251 HU 65 1 20.5073 -150.251 TC 65 20.5883 -150.409 4 63 8 313
1976266N13220 1976 116 EP CP KATE 1976-09-29 06:00:00 TS 20.8012 -150.617 65 hurdat_epa main 461 444 O________OP___ hurdat_epa CP011976 20.7000 -150.500 HU 65 1 20.7000 -150.500 TC 65 21.0074 -150.802 4 62 9 316
1976266N13220 1976 116 EP CP KATE 1976-09-29 09:00:00 TS 21.1629 -150.954 main 439 427 P________PP___ CP011976 21.0350 -150.835 HU 62 0 21.0350 -150.835 TC 62 21.4228 -151.169 4 61 10 319
1976266N13220 1976 116 EP CP KATE 1976-09-29 12:00:00 TS 21.5333 -151.300 60 hurdat_epa main 427 420 O________OO___ hurdat_epa CP011976 21.4000 -151.200 TS 60 0 21.4000 -151.200 TC 60 21.8000 -151.500 2 60 9 316
1976266N13220 1976 116 EP CP KATE 1976-09-29 15:00:00 TS 21.8317 -151.651 main 412 405 P________PP___ CP011976 21.6999 -151.550 TS 57 0 21.6999 -151.550 TC 57 22.0605 -151.835 2 57 9 312
1976266N13220 1976 116 EP CP KATE 1976-09-29 18:00:00 TS 22.1141 -151.988 55 hurdat_epa main 405 395 O________OP___ hurdat_epa CP011976 22.0000 -151.900 TS 55 0 22.0000 -151.900 TC 55 22.2849 -152.128 2 55 9 313
1976266N13220 1976 116 EP CP KATE 1976-09-29 21:00:00 TS 22.4133 -152.322 main 402 395 P________PP___ CP011976 22.3426 -152.295 TS 52 0 22.3426 -152.295 TC 52 22.5168 -152.357 2 52 8 319
1976266N13220 1976 116 EP CP KATE 1976-09-30 00:00:00 TS 22.7333 -152.567 50 hurdat_epa main 404 404 O________OO___ hurdat_epa CP011976 22.7000 -152.600 TS 50 0 22.7000 -152.600 TC 50 22.8000 -152.500 2 50 8 336
1976266N13220 1976 116 EP CP KATE 1976-09-30 03:00:00 TS 23.1022 -152.662 main 426 426 P________PP___ CP011976 23.0574 -152.710 TS 50 0 23.0574 -152.710 TC 50 23.2410 -152.533 2 50 7 354
1976266N13220 1976 116 EP CP KATE 1976-09-30 06:00:00 TS 23.4716 -152.647 50 hurdat_epa main 462 462 O________OP___ hurdat_epa CP011976 23.4000 -152.700 TS 50 0 23.4000 -152.700 TC 50 23.7298 -152.484 2 50 7 5
1976266N13220 1976 116 EP CP KATE 1976-09-30 09:00:00 TS 23.8023 -152.591 main 484 484 P________PP___ CP011976 23.7150 -152.673 TS 47 0 23.7150 -152.673 TC 47 24.2037 -152.393 2 50 6 12
1976266N13220 1976 116 EP CP KATE 1976-09-30 12:00:00 TS 24.1000 -152.500 45 hurdat_epa main 515 515 O________OO___ hurdat_epa CP011976 24.0000 -152.600 TS 45 0 24.0000 -152.600 TC 45 24.6000 -152.300 2 50 6 15
1976266N13220 1976 116 EP CP KATE 1976-09-30 15:00:00 TS 24.3607 -152.425 main 546 546 P________PP___ CP011976 24.2425 -152.515 TS 45 0 24.2425 -152.515 TC 45 24.8443 -152.264 2 47 5 16
1976266N13220 1976 116 EP CP KATE 1976-09-30 18:00:00 TS 24.6175 -152.339 45 hurdat_epa main 569 569 O________OP___ hurdat_epa CP011976 24.5000 -152.400 TS 45 0 24.5000 -152.400 TC 45 25.0049 -152.235 2 45 6 18
1976266N13220 1976 116 EP CP KATE 1976-09-30 21:00:00 TS 24.9318 -152.220 main 601 601 P________PP___ CP011976 24.8726 -152.228 TS 42 0 24.8726 -152.228 TC 42 25.1131 -152.214 2 42 6 18
1976266N13220 1976 116 EP CP KATE 1976-10-01 00:00:00 TS 25.2000 -152.133 40 hurdat_epa main 633 633 O________OO___ hurdat_epa CP011976 25.2000 -152.100 TS 40 0 25.2000 -152.100 TC 40 25.2000 -152.200 2 40 4 9
1976266N13220 1976 116 EP CP KATE 1976-10-01 03:00:00 TS 25.3261 -152.142 main 641 635 P________PP___ CP011976 25.3300 -152.120 TS 37 0 25.3300 -152.120 TC 37 25.3143 -152.173 2 38 2 345
1976266N13220 1976 116 EP CP KATE 1976-10-01 06:00:00 TS 25.4025 -152.193 35 hurdat_epa main 644 644 O________OP___ hurdat_epa CP011976 25.4000 -152.200 TS 35 0 25.4000 -152.200 TC 35 25.4149 -152.155 2 37 2 339
1976266N13220 1976 116 EP CP KATE 1976-10-01 09:00:00 TS 25.5347 -152.224 main 653 653 P________PP___ CP011976 25.5500 -152.250 TS 35 0 25.5500 -152.250 TC 35 25.5081 -152.160 2 36 3 345
1976266N13220 1976 116 EP CP KATE 1976-10-01 12:00:00 TS 25.6667 -152.267 35 hurdat_epa main 665 665 O________OO___ hurdat_epa CP011976 25.7000 -152.300 TS 35 0 25.7000 -152.300 TC 35 25.6000 -152.200 2 35 3 340
1976266N13220 1976 116 EP CP KATE 1976-10-01 15:00:00 TS 25.7760 -152.327 main 674 668 P________PP___ CP011976 25.8150 -152.350 TS 32 -1 25.8150 -152.350 TC 32 25.6957 -152.283 2 33 2 330
1976266N13220 1976 116 EP CP KATE 1976-10-01 18:00:00 TS 25.8721 -152.400 30 hurdat_epa main 678 678 O________OP___ hurdat_epa CP011976 25.9000 -152.400 TD 30 -1 25.9000 -152.400 TC 30 25.7952 -152.402 2 32 2 326
1976266N13220 1976 116 EP CP KATE 1976-10-01 21:00:00 TS 25.9336 -152.445 main 678 672 P________PP___ CP011976 25.9424 -152.420 TD 30 -1 25.9424 -152.420 TC 30 25.8971 -152.545 2 31 2 320
1976266N13220 1976 116 EP CP KATE 1976-10-02 00:00:00 TS 26.0000 -152.529 30 hurdat_epa main 681 676 O________OO___ hurdat_epa CP011976 26.0000 -152.500 TD 30 -1 26.0000 -152.500 TC 30 26.0000 -152.700 1 30 3 309
1976266N13220 1976 116 EP CP KATE 1976-10-02 03:00:00 TS 26.1277 -152.710 main 681 681 P________P____ CP011976 26.1277 -152.710 TD 30 -1 26.1277 -152.710 TC 30 1 5 305
1976266N13220 1976 116 EP CP KATE 1976-10-02 06:00:00 TS 26.3000 -153.000 30 hurdat_epa main 686 O________O____ hurdat_epa CP011976 26.3000 -153.000 TD 30 -1 26.3000 -153.000 TC 30 1 6 304

IBTrACS Databaseについて

本データベースは、米国NOAAが公開する1842年以降の世界の熱帯低気圧のベストトラックデータアーカイブInternational Best Track Archive for Climate Stewardship (IBTrACS)を、ウェブで閲覧しやすい形式に変換したものです。

最終更新日:2021-12-08